Time;durP1;ratioP1;P1;durP2;ratioP2;P2;SDS_P1;SDS_P2;PMS_P1;PMS_P2;Temp;Humidity;BMP_temperature;BMP_pressure;BME280_temperature;BME280_humidity;BME280_pressure;Samples;Min_cycle;Max_cycle;Signal;HPM_P1;HPM_P2
2022/04/21 00:00:34;;;;;;;;;9.00;9.00;;;;;8.42;51.14;99703.88;5095543;28;8844;-63
2022/04/21 00:03:02;;;;;;;;;12.20;12.20;;;;;8.35;51.25;99711.47;5094830;28;8830;-63
2022/04/21 00:05:30;;;;;;;;;11.20;11.20;;;;;8.27;51.82;99705.88;5095407;28;8939;-63
2022/04/21 00:07:57;;;;;;;;;8.40;7.20;;;;;8.21;51.72;99708.97;5095119;28;8834;-62
2022/04/21 00:10:25;;;;;;;;;13.40;12.20;;;;;8.15;51.94;99709.41;5095351;28;8870;-63
2022/04/21 00:12:54;;;;;;;;;12.20;10.40;;;;;8.08;52.29;99702.00;5095016;28;8817;-63
2022/04/21 00:15:22;;;;;;;;;11.40;10.60;;;;;7.98;52.04;99707.13;5095252;28;8826;-63
2022/04/21 00:17:50;;;;;;;;;13.80;11.60;;;;;7.91;51.84;99702.41;5093161;28;8844;-62
2022/04/21 00:20:17;;;;;;;;;12.40;11.60;;;;;7.84;52.12;99701.97;5092486;28;8831;-62
2022/04/21 00:25:31;;;;;;;;;15.60;13.40;;;;;7.73;52.67;99704.56;5094652;28;8830;-62
2022/04/21 00:27:58;;;;;;;;;13.00;12.40;;;;;7.65;52.49;99708.72;5095041;28;8852;-62
2022/04/21 00:30:26;;;;;;;;;13.00;12.40;;;;;7.60;53.07;99708.22;5094314;28;8834;-63
2022/04/21 00:32:54;;;;;;;;;9.20;9.20;;;;;7.57;52.84;99702.28;5094029;28;8931;-62
2022/04/21 00:35:25;;;;;;;;;11.60;11.60;;;;;7.54;52.86;99703.34;5094946;28;8822;-63
2022/04/21 00:37:53;;;;;;;;;14.20;12.80;;;;;7.54;53.10;99694.53;5094702;28;8833;-63
2022/04/21 00:40:20;;;;;;;;;9.60;9.20;;;;;7.55;53.27;99696.22;5095121;28;8842;-64
2022/04/21 00:42:48;;;;;;;;;11.60;9.60;;;;;7.54;53.00;99692.75;5094932;28;8844;-63
2022/04/21 00:45:15;;;;;;;;;13.60;12.00;;;;;7.53;53.25;99690.22;5095106;28;9499;-62
2022/04/21 00:47:45;;;;;;;;;9.20;9.00;;;;;7.51;52.70;99686.81;5094433;28;8834;-63
2022/04/21 00:50:12;;;;;;;;;12.40;11.80;;;;;7.48;53.14;99685.25;5094952;28;8892;-62
2022/04/21 00:52:40;;;;;;;;;11.60;11.60;;;;;7.46;52.72;99684.50;5095200;28;8948;-63
2022/04/21 00:55:08;;;;;;;;;10.80;10.00;;;;;7.45;52.65;99685.47;5094890;28;8819;-62
2022/04/21 00:57:36;;;;;;;;;6.60;6.40;;;;;7.43;52.94;99683.88;5094500;28;8968;-63
2022/04/21 01:00:03;;;;;;;;;12.40;9.80;;;;;7.40;53.49;99678.78;5094834;28;8924;-63
2022/04/21 01:05:16;;;;;;;;;8.00;7.40;;;;;7.33;53.33;99681.03;5094684;28;8834;-63
2022/04/21 01:07:44;;;;;;;;;12.60;12.40;;;;;7.30;52.97;99673.31;5094717;28;8833;-63
2022/04/21 01:10:11;;;;;;;;;10.00;10.00;;;;;7.27;53.09;99680.63;5094741;28;8855;-63
2022/04/21 01:12:39;;;;;;;;;12.40;10.00;;;;;7.25;53.54;99667.47;5095196;28;8814;-62
2022/04/21 01:15:07;;;;;;;;;8.40;7.00;;;;;7.23;53.48;99673.84;5094867;28;8838;-68
2022/04/21 01:17:35;;;;;;;;;10.80;10.40;;;;;7.21;53.59;99673.09;5094746;28;9476;-63
2022/04/21 01:20:02;;;;;;;;;14.60;12.80;;;;;7.19;53.15;99664.44;5094850;28;8852;-63
2022/04/21 01:22:30;;;;;;;;;11.20;10.80;;;;;7.17;53.51;99667.19;5094652;28;8826;-62
2022/04/21 01:24:58;;;;;;;;;10.40;10.00;;;;;7.14;52.89;99669.19;5094231;28;8834;-62
2022/04/21 01:27:26;;;;;;;;;9.00;9.00;;;;;7.13;53.25;99670.97;5094543;28;8838;-62
2022/04/21 01:29:54;;;;;;;;;13.80;12.40;;;;;7.11;53.27;99666.75;5093780;28;8842;-62
2022/04/21 01:32:22;;;;;;;;;10.00;6.60;;;;;7.09;53.50;99663.34;5093814;28;8828;-61
2022/04/21 01:34:49;;;;;;;;;12.20;10.80;;;;;7.08;53.76;99670.47;5093682;28;8851;-62
2022/04/21 01:42:47;;;;;;;;;10.80;10.40;;;;;7.06;53.55;99655.66;5094403;28;8826;-62
2022/04/21 01:45:16;;;;;;;;;9.00;9.00;;;;;7.01;53.50;99663.06;5096525;28;8826;-66
2022/04/21 01:47:44;;;;;;;;;9.80;9.80;;;;;6.98;54.18;99650.88;5098121;28;8852;-62
2022/04/21 01:50:12;;;;;;;;;6.20;6.00;;;;;6.95;54.34;99647.59;5098367;28;8856;-63
2022/04/21 01:52:39;;;;;;;;;7.80;7.80;;;;;6.96;54.02;99651.97;5098228;28;8884;-62
2022/04/21 01:55:07;;;;;;;;;15.60;10.40;;;;;6.94;53.96;99653.84;5097491;28;9492;-63
2022/04/21 01:57:35;;;;;;;;;10.40;10.00;;;;;6.92;53.91;99648.69;5096898;28;9534;-63
2022/04/21 02:00:03;;;;;;;;;12.40;12.40;;;;;6.91;53.81;99638.19;5097110;28;8825;-63
2022/04/21 02:02:32;;;;;;;;;6.00;4.80;;;;;6.88;54.21;99641.88;5098368;28;8879;-62
2022/04/21 02:05:00;;;;;;;;;15.20;11.60;;;;;6.87;53.86;99647.28;5097633;28;8849;-62
2022/04/21 02:07:28;;;;;;;;;10.00;10.00;;;;;6.79;54.34;99639.88;5082273;28;8836;-62
2022/04/21 02:09:56;;;;;;;;;7.80;7.40;;;;;6.77;54.10;99640.94;5089308;28;8869;-63
2022/04/21 02:12:24;;;;;;;;;7.00;7.00;;;;;6.76;54.02;99624.19;5077838;28;8828;-62
2022/04/21 02:14:52;;;;;;;;;10.40;9.40;;;;;6.77;54.66;99623.28;5077382;28;8864;-63
2022/04/21 02:17:20;;;;;;;;;9.60;9.60;;;;;6.78;54.60;99624.09;5077737;28;8841;-62
2022/04/21 02:19:47;;;;;;;;;9.60;9.60;;;;;6.79;54.36;99625.78;5077974;28;8828;-63
2022/04/21 02:22:15;;;;;;;;;10.00;9.00;;;;;6.80;54.39;99623.06;5077954;28;8946;-62
2022/04/21 02:24:43;;;;;;;;;7.20;6.00;;;;;6.81;54.40;99635.31;5077598;28;9633;-65
2022/04/21 02:27:11;;;;;;;;;12.00;11.20;;;;;6.80;54.16;99628.34;5077632;28;8959;-64
2022/04/21 02:29:39;;;;;;;;;11.60;11.20;;;;;6.78;54.13;99626.75;5077313;28;8962;-62
2022/04/21 02:32:07;;;;;;;;;8.60;7.00;;;;;6.76;54.10;99623.38;5076620;28;8825;-63
2022/04/21 02:34:34;;;;;;;;;9.80;9.80;;;;;6.74;54.19;99626.13;5077068;28;9538;-62
2022/04/21 02:37:02;;;;;;;;;10.40;10.40;;;;;6.71;54.08;99620.19;5076593;28;8825;-63
2022/04/21 02:39:30;;;;;;;;;9.00;8.40;;;;;6.69;54.46;99616.81;5077324;28;8998;-63
2022/04/21 02:41:59;;;;;;;;;10.00;9.60;;;;;6.68;54.02;99618.59;5076862;28;8855;-63
2022/04/21 02:44:26;;;;;;;;;10.00;10.00;;;;;6.67;54.42;99622.19;5077365;28;8836;-63
2022/04/21 02:46:54;;;;;;;;;8.20;7.00;;;;;6.66;54.50;99615.22;5076547;28;8979;-61
2022/04/21 02:49:22;;;;;;;;;9.00;9.00;;;;;6.66;54.70;99615.22;5077121;28;8848;-62
2022/04/21 02:51:50;;;;;;;;;12.20;10.80;;;;;6.66;54.25;99617.88;5077097;28;8825;-63
2022/04/21 02:59:48;;;;;;;;;7.80;7.80;;;;;6.63;54.45;99606.66;5076362;28;8816;-62
2022/04/21 03:02:15;;;;;;;;;15.00;13.00;;;;;6.61;54.60;99611.19;5076444;28;8855;-63
2022/04/21 03:04:43;;;;;;;;;6.40;6.00;;;;;6.54;54.20;99605.47;5076523;28;8851;-62
2022/04/21 03:07:11;;;;;;;;;7.00;7.00;;;;;6.45;54.34;99607.91;5076365;28;8854;-62
2022/04/21 03:09:39;;;;;;;;;10.60;9.80;;;;;6.37;54.69;99615.53;5083243;28;8873;-63
2022/04/21 03:12:06;;;;;;;;;7.00;7.00;;;;;6.30;54.72;99614.25;5096744;28;9511;-63
2022/04/21 03:14:34;;;;;;;;;9.00;8.20;;;;;6.23;54.66;99612.97;5096585;28;8970;-62
2022/04/21 03:17:02;;;;;;;;;9.20;9.20;;;;;6.19;54.91;99612.31;5083359;28;8960;-62
2022/04/21 03:19:30;;;;;;;;;12.60;9.20;;;;;6.15;55.28;99610.00;5096304;28;8856;-63
2022/04/21 03:24:44;;;;;;;;;8.60;7.40;;;;;6.08;55.33;99616.63;5096753;28;8842;-62
2022/04/21 03:27:12;;;;;;;;;6.80;6.00;;;;;5.98;55.16;99615.53;5096144;28;9460;-62
2022/04/21 03:29:39;;;;;;;;;9.00;8.60;;;;;5.92;55.45;99613.31;5096329;28;8889;-62
2022/04/21 03:32:09;;;;;;;;;9.00;7.00;;;;;5.85;55.32;99607.56;5095769;28;8842;-63
2022/04/21 03:34:40;;;;;;;;;12.40;12.40;;;;;5.84;55.78;99612.97;5096196;28;8834;-63
2022/04/21 03:37:07;;;;;;;;;9.20;9.00;;;;;5.81;55.47;99613.16;5084903;28;8919;-62
2022/04/21 03:39:35;;;;;;;;;11.60;9.60;;;;;5.80;55.81;99608.81;5095354;28;9005;-63
2022/04/21 03:42:03;;;;;;;;;11.20;11.20;;;;;5.79;55.24;99607.09;5095529;28;8834;-62
2022/04/21 03:44:31;;;;;;;;;13.00;12.60;;;;;5.79;55.57;99601.81;5095861;28;8837;-62
2022/04/21 03:46:59;;;;;;;;;9.20;8.60;;;;;5.80;55.60;99609.69;5096041;28;8837;-62
2022/04/21 03:49:26;;;;;;;;;8.40;7.40;;;;;5.80;55.25;99614.97;5096416;28;8891;-62
2022/04/21 03:51:54;;;;;;;;;9.80;8.80;;;;;5.80;55.85;99614.13;5095548;28;8872;-61
2022/04/21 03:54:22;;;;;;;;;10.20;9.40;;;;;5.82;55.79;99612.22;5095817;28;8837;-62
2022/04/21 03:56:50;;;;;;;;;11.40;10.80;;;;;5.82;55.28;99612.22;5095256;28;8818;-62
2022/04/21 03:59:18;;;;;;;;;10.80;9.40;;;;;5.80;55.56;99606.19;5096173;28;8950;-62
2022/04/21 04:01:46;;;;;;;;;9.80;9.40;;;;;5.77;55.21;99603.72;5095176;28;8850;-63
2022/04/21 04:04:13;;;;;;;;;9.20;7.40;;;;;5.74;55.92;99614.47;5095825;28;8864;-62
2022/04/21 04:12:11;;;;;;;;;9.60;8.20;;;;;5.48;56.40;99612.69;5075186;28;8824;-62
2022/04/21 04:14:39;;;;;;;;;6.60;6.00;;;;;5.36;55.85;99619.59;5075094;28;8848;-62
2022/04/21 04:17:08;;;;;;;;;6.80;6.00;;;;;5.26;56.28;99615.00;5074215;28;8859;-62
2022/04/21 04:19:35;;;;;;;;;1.00;1.00;;;;;5.18;56.31;99612.00;5075167;28;8828;-63
2022/04/21 04:22:03;;;;;;;;;8.80;7.00;;;;;5.10;56.69;99617.75;5075317;28;8843;-62
2022/04/21 04:24:31;;;;;;;;;9.20;9.00;;;;;5.05;57.12;99616.34;5074649;28;9466;-62
2022/04/21 04:26:59;;;;;;;;;9.40;8.60;;;;;4.98;56.96;99607.13;5074826;28;8812;-62
2022/04/21 04:29:27;;;;;;;;;9.80;9.00;;;;;4.94;56.98;99616.19;5075394;28;8876;-62
2022/04/21 04:31:54;;;;;;;;;6.40;6.40;;;;;4.89;56.83;99620.88;5075038;28;8840;-63
2022/04/21 04:34:22;;;;;;;;;9.80;9.80;;;;;4.88;56.68;99619.19;5075438;28;8820;-63
2022/04/21 04:36:50;;;;;;;;;9.60;9.00;;;;;4.88;57.24;99620.03;5074445;28;8836;-63
2022/04/21 04:39:18;;;;;;;;;6.60;6.60;;;;;4.90;57.11;99623.44;5074657;28;8879;-63
2022/04/21 04:44:31;;;;;;;;;9.00;8.40;;;;;4.96;56.75;99638.03;5075025;28;8878;-63
2022/04/21 04:46:58;;;;;;;;;4.80;4.00;;;;;4.99;56.30;99641.31;5074682;28;8832;-62
2022/04/21 04:49:25;;;;;;;;;9.80;7.40;;;;;5.02;56.73;99641.13;5074924;28;8856;-63
2022/04/21 04:51:53;;;;;;;;;6.00;4.40;;;;;5.09;56.85;99647.72;5074519;28;8820;-63
2022/04/21 04:54:21;;;;;;;;;7.80;7.80;;;;;5.14;55.99;99634.22;5074918;28;9541;-62
2022/04/21 04:56:49;;;;;;;;;11.20;8.60;;;;;5.19;56.49;99640.09;5073981;28;8840;-63
2022/04/21 04:59:16;;;;;;;;;8.60;8.60;;;;;5.23;56.50;99634.50;5074678;28;8858;-64
2022/04/21 05:01:45;;;;;;;;;7.40;7.00;;;;;5.26;56.11;99633.47;5073850;28;8813;-63
2022/04/21 05:04:14;;;;;;;;;9.00;9.00;;;;;5.27;56.23;99629.88;5074670;28;8856;-64
2022/04/21 05:06:41;;;;;;;;;8.20;7.20;;;;;5.31;55.81;99628.75;5073673;28;8844;-63
2022/04/21 05:09:09;;;;;;;;;7.00;7.00;;;;;5.34;56.15;99624.13;5075860;28;8848;-62
2022/04/21 05:11:37;;;;;;;;;8.60;7.00;;;;;5.40;55.36;99621.09;5094332;28;8836;-62
2022/04/21 05:14:04;;;;;;;;;7.60;5.80;;;;;5.50;55.52;99621.34;5094783;28;8957;-63
2022/04/21 05:16:32;;;;;;;;;6.40;6.00;;;;;5.58;55.35;99624.34;5094846;28;8826;-63
2022/04/21 05:19:00;;;;;;;;;6.80;6.60;;;;;5.68;54.74;99614.91;5096795;28;8826;-62
2022/04/21 05:21:28;;;;;;;;;12.00;12.00;;;;;5.77;55.46;99624.84;5098289;28;8864;-62
2022/04/21 05:23:55;;;;;;;;;8.80;7.60;;;;;5.84;55.49;99612.97;5098999;28;8856;-62
2022/04/21 05:26:23;;;;;;;;;7.40;7.40;;;;;5.88;54.70;99606.53;5098459;28;8876;-63
2022/04/21 05:28:51;;;;;;;;;7.00;6.00;;;;;5.94;55.20;99614.06;5099063;28;8834;-63
2022/04/21 05:31:18;;;;;;;;;7.40;6.60;;;;;6.03;55.00;99610.81;5098361;28;8891;-63
2022/04/21 05:33:46;;;;;;;;;6.20;5.20;;;;;6.13;54.89;99604.81;5097481;28;8818;-63
2022/04/21 05:36:14;;;;;;;;;9.60;8.20;;;;;6.25;54.15;99600.47;5097801;28;8822;-62
2022/04/21 05:38:41;;;;;;;;;10.00;9.60;;;;;6.36;54.73;99597.97;5096922;28;8890;-63
2022/04/21 05:41:09;;;;;;;;;8.20;7.80;;;;;6.49;54.04;99598.81;5097130;28;8887;-63
2022/04/21 05:43:39;;;;;;;;;11.20;9.80;;;;;6.66;54.57;99602.00;5096939;28;8849;-63
2022/04/21 05:46:07;;;;;;;;;7.20;6.60;;;;;6.81;53.32;99608.88;5096031;28;8834;-63
2022/04/21 05:48:35;;;;;;;;;9.60;9.40;;;;;6.95;53.64;99603.47;5095949;28;8891;-62
2022/04/21 05:51:03;;;;;;;;;6.40;6.40;;;;;7.08;53.13;99608.72;5097348;28;8834;-64
2022/04/21 05:53:30;;;;;;;;;8.00;6.60;;;;;7.19;53.58;99603.53;5097451;28;8834;-63
2022/04/21 05:55:58;;;;;;;;;10.00;10.00;;;;;7.30;53.15;99599.16;5097254;28;8869;-63
2022/04/21 05:58:26;;;;;;;;;12.00;10.00;;;;;7.42;52.99;99602.72;5097698;28;8850;-63
2022/04/21 06:00:54;;;;;;;;;10.40;10.00;;;;;7.55;52.60;99600.84;5096697;28;8803;-62
2022/04/21 06:03:27;;;;;;;;;17.20;14.60;;;;;7.68;52.65;99595.41;5097586;28;9468;-63
2022/04/21 06:05:55;;;;;;;;;12.00;9.80;;;;;7.83;52.82;99593.44;5097717;28;8830;-63
2022/04/21 06:08:23;;;;;;;;;10.60;10.00;;;;;8.00;52.48;99591.22;5097156;28;9505;-63
2022/04/21 06:10:55;;;;;;;;;12.20;10.80;;;;;8.22;51.82;99598.44;5080504;28;8884;-64
2022/04/21 06:13:22;;;;;;;;;6.80;5.20;;;;;8.46;51.88;99599.22;5074748;28;9501;-63
2022/04/21 06:15:50;;;;;;;;;10.80;10.40;;;;;8.70;51.64;99602.66;5076137;28;8850;-63
2022/04/21 06:18:18;;;;;;;;;13.00;12.40;;;;;8.94;51.27;99603.38;5075544;28;9908;-63
2022/04/21 06:20:46;;;;;;;;;9.00;9.00;;;;;9.15;50.82;99591.94;5075998;28;8843;-68
2022/04/21 06:23:14;;;;;;;;;10.00;9.00;;;;;9.33;50.11;99586.97;5076535;28;8832;-64
2022/04/21 06:25:42;;;;;;;;;7.40;6.60;;;;;9.50;50.31;99589.94;5074758;28;8913;-63
2022/04/21 06:28:09;;;;;;;;;8.80;6.80;;;;;9.66;50.06;99590.38;5075265;28;8833;-64
2022/04/21 06:30:37;;;;;;;;;9.40;9.00;;;;;9.81;50.08;99588.28;5075061;28;8922;-63
2022/04/21 06:33:05;;;;;;;;;8.20;8.20;;;;;9.98;49.89;99591.25;5075222;28;8854;-63
2022/04/21 06:35:33;;;;;;;;;12.80;12.40;;;;;10.12;49.91;99580.34;5076638;28;8840;-63
2022/04/21 06:38:01;;;;;;;;;9.00;7.00;;;;;10.27;49.47;99581.72;5076213;28;9524;-64
2022/04/21 06:40:29;;;;;;;;;15.00;12.20;;;;;10.39;49.79;99578.00;5074819;28;8869;-63
2022/04/21 06:42:58;;;;;;;;;9.00;7.40;;;;;10.48;49.71;99581.72;5073399;28;8836;-64
2022/04/21 06:48:20;;;;;;;;;4.80;4.80;;;;;10.67;49.66;99577.34;5073562;28;8824;-64
2022/04/21 06:50:47;;;;;;;;;6.00;6.00;;;;;10.79;50.03;99578.13;5075020;28;8836;-63
2022/04/21 06:53:15;;;;;;;;;6.00;6.00;;;;;10.89;49.75;99579.88;5074783;28;8921;-63
2022/04/21 06:55:43;;;;;;;;;9.00;7.00;;;;;10.96;50.23;99578.34;5076177;28;8828;-63
2022/04/21 06:58:11;;;;;;;;;8.60;8.60;;;;;11.02;49.71;99569.84;5076292;28;8837;-63
2022/04/21 07:00:38;;;;;;;;;8.20;8.20;;;;;11.11;50.21;99568.16;5074927;28;8850;-63
2022/04/21 07:03:07;;;;;;;;;4.50;4.50;;;;;11.19;50.52;99571.84;5075860;28;8832;-63
2022/04/21 07:05:35;;;;;;;;;9.00;8.00;;;;;11.31;50.12;99567.25;5075162;28;8834;-63
2022/04/21 07:08:04;;;;;;;;;6.25;6.25;;;;;11.38;49.81;99563.91;5075399;28;8824;-63
2022/04/21 07:10:33;;;;;;;;;10.00;9.25;;;;;11.49;49.75;99557.63;5076052;28;8883;-63
2022/04/21 07:13:01;;;;;;;;;7.00;6.50;;;;;11.59;49.93;99558.53;5075369;28;8832;-63
2022/04/21 07:15:28;;;;;;;;;7.00;6.75;;;;;11.66;49.95;99559.63;5075710;28;9478;-63
2022/04/21 07:17:57;;;;;;;;;3.50;3.50;;;;;11.74;50.10;99559.81;5074507;28;8832;-64
2022/04/21 07:20:28;;;;;;;;;6.25;6.00;;;;;11.84;49.69;99564.16;5075164;28;8824;-64
2022/04/21 07:22:56;;;;;;;;;7.50;7.00;;;;;11.92;50.38;99561.66;5075255;28;8838;-64
2022/04/21 07:25:28;;;;;;;;;7.00;6.25;;;;;12.01;50.35;99571.50;5075489;28;9583;-63
2022/04/21 07:27:56;;;;;;;;;3.25;3.25;;;;;12.12;49.95;99576.66;5075408;28;8832;-63
2022/04/21 07:30:23;;;;;;;;;6.00;6.00;;;;;12.21;49.56;99578.50;5075709;28;8844;-63
2022/04/21 07:32:51;;;;;;;;;9.75;8.75;;;;;12.32;50.01;99575.69;5073826;28;8839;-63
2022/04/21 07:35:19;;;;;;;;;11.00;9.75;;;;;12.45;49.57;99581.59;5075243;28;9534;-64
2022/04/21 07:37:47;;;;;;;;;9.75;9.00;;;;;12.57;49.24;99572.41;5074569;28;8813;-64
2022/04/21 07:40:16;;;;;;;;;10.00;9.50;;;;;12.69;49.15;99577.44;5074875;28;8994;-63
2022/04/21 07:42:44;;;;;;;;;8.50;8.00;;;;;12.81;49.00;99578.13;5071521;28;8808;-63
2022/04/21 07:45:13;;;;;;;;;9.00;7.00;;;;;12.93;49.16;99583.13;5073316;28;8937;-63
2022/04/21 07:47:41;;;;;;;;;7.00;6.00;;;;;13.03;48.63;99572.44;5071969;28;8958;-64
2022/04/21 07:50:09;;;;;;;;;5.50;4.00;;;;;13.10;48.94;99573.56;5071113;28;8836;-63
2022/04/21 07:55:23;;;;;;;;;7.00;6.75;;;;;13.24;48.37;99567.72;5073595;28;8932;-63
2022/04/21 07:57:51;;;;;;;;;7.50;7.50;;;;;13.36;48.57;99574.56;5073571;28;8832;-63
2022/04/21 08:00:19;;;;;;;;;5.75;5.75;;;;;13.50;48.23;99568.69;5074006;28;8843;-64
2022/04/21 08:02:47;;;;;;;;;4.00;4.00;;;;;13.65;47.79;99567.19;5073404;28;8859;-64
2022/04/21 08:05:15;;;;;;;;;9.75;9.75;;;;;13.84;47.83;99569.75;5074206;28;8832;-64
2022/04/21 08:07:42;;;;;;;;;5.50;5.50;;;;;13.97;47.67;99562.22;5073970;28;9516;-64
2022/04/21 08:10:16;;;;;;;;;9.50;6.25;;;;;14.06;47.38;99555.94;5072349;28;8844;-65
2022/04/21 08:12:44;;;;;;;;;6.75;6.75;;;;;14.08;47.66;99553.94;5072525;28;9458;-64
2022/04/21 08:15:11;;;;;;;;;7.00;7.00;;;;;14.10;47.49;99557.28;5072841;28;8979;-64
2022/04/21 08:17:40;;;;;;;;;7.00;6.50;;;;;14.10;47.55;99557.28;5072658;28;8848;-63
2022/04/21 08:20:07;;;;;;;;;6.75;6.00;;;;;14.11;47.77;99557.16;5072547;28;8987;-64
2022/04/21 08:22:35;;;;;;;;;3.75;3.75;;;;;14.19;47.30;99553.75;5073863;28;8970;-64
2022/04/21 08:33:23;;;;;;;;;4.00;4.00;;;;;14.71;45.84;99558.16;5070039;28;8865;-65
2022/04/21 08:35:51;;;;;;;;;4.00;3.25;;;;;14.79;46.06;99558.22;5074159;28;8866;-64
2022/04/21 08:38:19;;;;;;;;;3.75;3.75;;;;;14.85;46.09;99560.25;5073865;28;8856;-63
2022/04/21 08:40:50;;;;;;;;;4.00;3.75;;;;;14.88;46.33;99557.28;5073632;28;9552;-64
2022/04/21 08:43:18;;;;;;;;;4.67;4.67;;;;;14.84;46.23;99550.53;5073809;28;8851;-63
2022/04/21 08:45:46;;;;;;;;;6.00;4.00;;;;;14.76;46.19;99554.00;5074569;28;8951;-65
2022/04/21 08:48:14;;;;;;;;;4.50;4.00;;;;;14.63;46.73;99563.47;5074123;28;8862;-67
2022/04/21 08:50:42;;;;;;;;;3.00;3.00;;;;;14.51;46.72;99564.72;5073638;28;8839;-64
2022/04/21 08:53:10;;;;;;;;;6.75;6.75;;;;;14.35;46.93;99559.22;5074344;28;8840;-64
2022/04/21 08:55:38;;;;;;;;;7.25;6.25;;;;;14.19;47.05;99554.56;5075428;28;8837;-64
2022/04/21 08:58:05;;;;;;;;;6.50;6.50;;;;;14.04;47.56;99561.44;5077283;28;8974;-64
2022/04/21 09:00:34;;;;;;;;;5.50;4.00;;;;;13.94;47.84;99571.38;5076683;28;8843;-63
2022/04/21 09:03:02;;;;;;;;;3.00;3.00;;;;;13.88;47.57;99569.31;5077109;28;8833;-64
2022/04/21 09:05:30;;;;;;;;;5.00;5.00;;;;;13.87;47.54;99561.41;5077904;28;8817;-63
2022/04/21 09:07:58;;;;;;;;;6.67;6.67;;;;;13.86;48.21;99568.63;5077674;28;8832;-65
2022/04/21 09:10:47;;;;;;;;;5.75;5.50;;;;;13.84;47.59;99567.94;5093232;28;9005;-64
2022/04/21 09:13:15;;;;;;;;;6.50;6.00;;;;;13.89;47.78;99560.28;5098030;28;8973;-64
2022/04/21 09:15:45;;;;;;;;;5.50;5.50;;;;;13.93;47.52;99556.31;5097155;28;8828;-64
2022/04/21 09:18:13;;;;;;;;;7.00;7.00;;;;;13.94;47.63;99559.81;5097588;28;8858;-64
2022/04/21 09:20:40;;;;;;;;;5.00;5.00;;;;;13.94;47.14;99566.03;5097822;28;8840;-64
2022/04/21 09:23:09;;;;;;;;;4.50;4.50;;;;;13.96;47.76;99561.34;5097860;28;9694;-63
2022/04/21 09:25:37;;;;;;;;;4.00;4.00;;;;;13.95;47.63;99553.47;5097559;28;9468;-64
2022/04/21 09:28:05;;;;;;;;;4.50;4.00;;;;;13.93;48.00;99548.28;5097134;28;8830;-64
2022/04/21 09:30:33;;;;;;;;;7.50;6.00;;;;;13.90;47.10;99548.56;5098419;28;8849;-64
2022/04/21 09:33:01;;;;;;;;;6.50;6.50;;;;;13.87;47.63;99553.38;5097404;28;8925;-64
2022/04/21 09:35:29;;;;;;;;;5.00;5.00;;;;;13.82;48.08;99539.63;5097242;28;9480;-64
2022/04/21 09:37:57;;;;;;;;;7.50;7.00;;;;;13.80;47.95;99541.59;5098352;28;8836;-62
2022/04/21 09:40:24;;;;;;;;;6.25;6.25;;;;;13.79;48.05;99548.81;5097466;28;9008;-62
2022/04/21 09:42:53;;;;;;;;;7.00;7.00;;;;;13.76;47.69;99545.59;5097353;28;8850;-62
2022/04/21 09:48:06;;;;;;;;;6.00;4.00;;;;;13.71;48.12;99553.22;5097267;28;8838;-62
2022/04/21 09:50:33;;;;;;;;;8.50;7.00;;;;;13.65;48.26;99552.00;5098331;28;8834;-62
2022/04/21 09:53:01;;;;;;;;;6.00;5.50;;;;;13.63;47.97;99553.13;5096915;28;8996;-62
2022/04/21 09:55:30;;;;;;;;;6.75;6.50;;;;;13.61;48.43;99552.47;5096618;28;8914;-62
2022/04/21 09:57:58;;;;;;;;;9.00;6.75;;;;;13.60;48.12;99546.25;5097372;28;8826;-62
2022/04/21 10:00:26;;;;;;;;;8.25;8.25;;;;;13.61;48.54;99541.75;5097286;28;8826;-62
2022/04/21 10:02:54;;;;;;;;;4.50;4.50;;;;;13.61;48.55;99544.44;5097395;28;8822;-62
2022/04/21 10:05:22;;;;;;;;;9.00;8.50;;;;;13.64;47.99;99538.75;5095699;28;8868;-63
2022/04/21 10:07:50;;;;;;;;;3.50;3.25;;;;;13.69;48.16;99537.34;5096853;28;8838;-63
2022/04/21 10:10:17;;;;;;;;;6.00;6.00;;;;;13.79;47.91;99529.22;5085004;28;8986;-62
2022/04/21 10:12:45;;;;;;;;;7.50;7.50;;;;;13.99;47.58;99520.06;5070103;28;8840;-67
2022/04/21 10:15:12;;;;;;;;;6.50;6.00;;;;;14.23;47.24;99514.94;5076301;28;8991;-62
2022/04/21 10:17:41;;;;;;;;;1.67;1.67;;;;;14.47;46.80;99524.00;5077044;28;8828;-62
2022/04/21 10:20:08;;;;;;;;;4.00;3.00;;;;;14.71;46.23;99517.97;5076878;28;8862;-63
2022/04/21 10:22:36;;;;;;;;;6.00;6.00;;;;;14.91;45.90;99509.53;5076477;28;8817;-63
2022/04/21 10:25:05;;;;;;;;;7.00;7.00;;;;;15.17;45.91;99509.47;5076405;28;8817;-64
2022/04/21 10:27:33;;;;;;;;;7.00;7.00;;;;;15.38;45.40;99500.03;5076237;28;8832;-62
2022/04/21 10:30:01;;;;;;;;;7.50;7.50;;;;;15.58;45.43;99497.91;5076863;28;8836;-63
2022/04/21 10:32:29;;;;;;;;;6.25;6.25;;;;;15.71;45.28;99495.59;5075793;28;8848;-63
2022/04/21 10:34:57;;;;;;;;;9.00;7.00;;;;;15.84;44.91;99498.63;5074592;28;8828;-63
2022/04/21 10:37:25;;;;;;;;;7.50;7.50;;;;;15.97;44.83;99496.28;5076757;28;8849;-63
2022/04/21 10:39:53;;;;;;;;;9.75;9.75;;;;;16.05;44.75;99499.81;5075441;28;8860;-63
2022/04/21 10:42:21;;;;;;;;;7.50;6.75;;;;;16.09;44.89;99494.94;5074274;28;8828;-63
2022/04/21 10:44:49;;;;;;;;;9.00;9.00;;;;;16.12;44.75;99489.22;5075458;28;8836;-64
2022/04/21 10:47:17;;;;;;;;;7.50;7.00;;;;;16.15;44.54;99483.53;5059897;28;8852;-63
2022/04/21 10:49:44;;;;;;;;;7.50;7.00;;;;;16.27;44.48;99488.41;5075401;28;8824;-63
2022/04/21 10:57:44;;;;;;;;;3.25;1.50;;;;;16.55;44.48;99484.38;5075533;28;8828;-62
2022/04/21 11:00:12;;;;;;;;;10.33;9.33;;;;;16.61;44.55;99481.81;5074857;28;8868;-63
2022/04/21 11:02:40;;;;;;;;;7.00;7.00;;;;;16.93;43.80;99479.03;5073529;28;8824;-63
2022/04/21 11:05:07;;;;;;;;;9.00;8.00;;;;;17.39;43.65;99474.69;5074160;28;9674;-63
2022/04/21 11:07:36;;;;;;;;;9.00;9.00;;;;;17.78;42.84;99470.06;5074612;28;8951;-63
2022/04/21 11:10:03;;;;;;;;;9.00;8.00;;;;;18.06;42.13;99479.28;5074110;28;8868;-63
2022/04/21 11:12:49;;;;;;;;;10.50;9.75;;;;;18.19;41.78;99469.56;5073514;28;9471;-68
2022/04/21 11:15:17;;;;;;;;;9.75;9.00;;;;;18.34;41.87;99465.06;5073716;28;8874;-64
2022/04/21 11:17:45;;;;;;;;;9.25;9.00;;;;;18.33;41.86;99466.09;5073019;28;8959;-63
2022/04/21 11:20:13;;;;;;;;;8.50;7.00;;;;;18.14;41.99;99461.16;5072962;28;8966;-63
2022/04/21 11:22:41;;;;;;;;;10.75;9.75;;;;;17.93;42.68;99462.88;5072941;28;9849;-65
2022/04/21 11:25:09;;;;;;;;;7.00;6.00;;;;;17.63;42.67;99455.69;5072046;28;8975;-62
2022/04/21 11:27:37;;;;;;;;;9.00;8.50;;;;;17.34;43.35;99464.41;5071954;28;8858;-63
2022/04/21 11:30:04;;;;;;;;;6.00;6.00;;;;;17.10;43.64;99458.28;5073671;28;8894;-63
2022/04/21 11:32:33;;;;;;;;;10.00;10.00;;;;;16.91;44.02;99448.78;5071300;28;8874;-63
2022/04/21 11:35:01;;;;;;;;;12.00;11.50;;;;;16.81;44.33;99461.63;5055161;28;8984;-63
2022/04/21 11:37:28;;;;;;;;;11.00;10.00;;;;;16.79;44.86;99460.09;5056283;28;8995;-63
2022/04/21 11:39:56;;;;;;;;;10.50;10.50;;;;;16.82;44.10;99465.13;5073741;28;8971;-63
2022/04/21 11:42:24;;;;;;;;;4.00;3.50;;;;;16.87;43.98;99463.59;5074105;28;8854;-62
2022/04/21 11:44:56;;;;;;;;;7.00;6.75;;;;;16.96;44.62;99462.56;5074107;28;8844;-63
2022/04/21 11:47:24;;;;;;;;;9.50;9.00;;;;;17.03;44.00;99452.78;5072027;28;8856;-63
2022/04/21 11:49:52;;;;;;;;;9.00;9.00;;;;;17.07;44.17;99454.09;5073576;28;8917;-63
2022/04/21 11:52:20;;;;;;;;;11.50;10.50;;;;;17.11;44.20;99457.28;5072917;28;8933;-63
2022/04/21 11:54:47;;;;;;;;;7.00;7.00;;;;;17.15;43.72;99456.75;5072996;28;8836;-63
2022/04/21 11:57:15;;;;;;;;;10.50;10.00;;;;;17.19;44.48;99454.56;5072178;28;8836;-64
2022/04/21 11:59:43;;;;;;;;;10.00;10.00;;;;;17.23;43.65;99448.63;5073923;28;8860;-63
2022/04/21 12:07:42;;;;;;;;;9.50;9.50;;;;;18.66;41.82;99436.94;5058935;28;8990;-63
2022/04/21 12:10:09;;;;;;;;;9.75;9.00;;;;;19.92;39.99;99429.13;5073345;28;9530;-64
2022/04/21 12:12:37;;;;;;;;;10.50;10.00;;;;;21.40;37.93;99420.38;5073006;28;8844;-64
2022/04/21 12:15:05;;;;;;;;;3.00;2.60;;;;;22.81;36.19;99404.44;5073520;28;8949;-63
2022/04/21 12:17:33;;;;;;;;;9.00;8.00;;;;;23.78;34.83;99407.75;5073340;28;8976;-64
2022/04/21 12:20:02;;;;;;;;;11.40;11.20;;;;;24.14;33.93;99402.50;5073745;28;9514;-67
2022/04/21 12:22:30;;;;;;;;;11.20;8.20;;;;;23.75;35.04;99408.22;5074004;28;8947;-64
2022/04/21 12:24:58;;;;;;;;;8.20;6.00;;;;;23.28;35.97;99403.25;5074535;28;9774;-64
2022/04/21 12:27:26;;;;;;;;;11.40;10.20;;;;;22.39;36.82;99414.91;5072848;28;8828;-63
2022/04/21 12:29:54;;;;;;;;;11.60;11.20;;;;;21.63;38.04;99413.56;5074036;28;8832;-63
2022/04/21 12:32:22;;;;;;;;;12.00;10.20;;;;;21.15;38.54;99413.81;5073665;28;8851;-63
2022/04/21 12:34:50;;;;;;;;;10.00;9.00;;;;;20.93;39.24;99409.53;5074219;28;9549;-63
2022/04/21 12:37:17;;;;;;;;;7.40;6.80;;;;;20.73;39.52;99415.84;5074505;28;8804;-63
2022/04/21 12:39:45;;;;;;;;;11.20;10.20;;;;;20.75;39.65;99409.22;5074139;28;8894;-63